sensor_id;sensor_type;location;lat;lon;timestamp;P1;durP1;ratioP1;P2;durP2;ratioP2
20711;SDS011;10517;50.742;4.224;2024-01-06T00:00:30;0.60;;;0.40;;
20711;SDS011;10517;50.742;4.224;2024-01-06T00:02:55;0.93;;;0.57;;
20711;SDS011;10517;50.742;4.224;2024-01-06T00:05:21;8.67;;;0.83;;
20711;SDS011;10517;50.742;4.224;2024-01-06T00:07:47;0.50;;;0.23;;
20711;SDS011;10517;50.742;4.224;2024-01-06T00:10:12;1.60;;;0.57;;
20711;SDS011;10517;50.742;4.224;2024-01-06T00:12:38;1.23;;;0.40;;
20711;SDS011;10517;50.742;4.224;2024-01-06T00:15:03;0.50;;;0.17;;
20711;SDS011;10517;50.742;4.224;2024-01-06T00:17:29;0.10;;;0.10;;
20711;SDS011;10517;50.742;4.224;2024-01-06T00:19:55;0.90;;;0.40;;
20711;SDS011;10517;50.742;4.224;2024-01-06T00:22:21;1.37;;;0.57;;
20711;SDS011;10517;50.742;4.224;2024-01-06T00:24:46;0.30;;;0.30;;
20711;SDS011;10517;50.742;4.224;2024-01-06T00:27:13;0.40;;;0.30;;
20711;SDS011;10517;50.742;4.224;2024-01-06T00:29:40;4.37;;;0.70;;
20711;SDS011;10517;50.742;4.224;2024-01-06T00:32:05;2.33;;;0.67;;
20711;SDS011;10517;50.742;4.224;2024-01-06T00:34:31;0.37;;;0.37;;
20711;SDS011;10517;50.742;4.224;2024-01-06T00:36:57;1.70;;;0.53;;
20711;SDS011;10517;50.742;4.224;2024-01-06T00:39:22;1.33;;;0.60;;
20711;SDS011;10517;50.742;4.224;2024-01-06T00:41:48;4.27;;;0.70;;
20711;SDS011;10517;50.742;4.224;2024-01-06T00:44:13;1.73;;;0.57;;
20711;SDS011;10517;50.742;4.224;2024-01-06T00:46:39;1.00;;;0.50;;
20711;SDS011;10517;50.742;4.224;2024-01-06T00:49:05;1.30;;;0.70;;
20711;SDS011;10517;50.742;4.224;2024-01-06T00:51:30;0.70;;;0.57;;
20711;SDS011;10517;50.742;4.224;2024-01-06T00:53:56;0.37;;;0.20;;
20711;SDS011;10517;50.742;4.224;2024-01-06T00:56:22;3.00;;;1.43;;
20711;SDS011;10517;50.742;4.224;2024-01-06T00:58:47;3.13;;;0.70;;
20711;SDS011;10517;50.742;4.224;2024-01-06T01:01:13;1.40;;;0.80;;
20711;SDS011;10517;50.742;4.224;2024-01-06T01:03:39;3.03;;;1.73;;
20711;SDS011;10517;50.742;4.224;2024-01-06T01:06:04;2.67;;;0.60;;
20711;SDS011;10517;50.742;4.224;2024-01-06T01:08:30;1.33;;;0.53;;
20711;SDS011;10517;50.742;4.224;2024-01-06T01:10:56;1.20;;;0.97;;
20711;SDS011;10517;50.742;4.224;2024-01-06T01:13:22;0.90;;;0.40;;
20711;SDS011;10517;50.742;4.224;2024-01-06T01:15:47;0.40;;;0.40;;
20711;SDS011;10517;50.742;4.224;2024-01-06T01:18:13;1.10;;;0.43;;
20711;SDS011;10517;50.742;4.224;2024-01-06T01:20:39;0.53;;;0.40;;
20711;SDS011;10517;50.742;4.224;2024-01-06T01:23:06;0.80;;;0.50;;
20711;SDS011;10517;50.742;4.224;2024-01-06T01:25:32;3.77;;;0.67;;
20711;SDS011;10517;50.742;4.224;2024-01-06T01:27:58;1.87;;;0.67;;
20711;SDS011;10517;50.742;4.224;2024-01-06T01:30:24;0.80;;;0.40;;
20711;SDS011;10517;50.742;4.224;2024-01-06T01:32:49;3.53;;;0.50;;
20711;SDS011;10517;50.742;4.224;2024-01-06T01:35:15;2.83;;;0.50;;
20711;SDS011;10517;50.742;4.224;2024-01-06T01:37:40;0.60;;;0.27;;
20711;SDS011;10517;50.742;4.224;2024-01-06T01:40:06;0.43;;;0.43;;
20711;SDS011;10517;50.742;4.224;2024-01-06T01:42:32;2.13;;;1.07;;
20711;SDS011;10517;50.742;4.224;2024-01-06T01:44:58;1.10;;;0.37;;
20711;SDS011;10517;50.742;4.224;2024-01-06T01:47:24;0.47;;;0.47;;
20711;SDS011;10517;50.742;4.224;2024-01-06T01:49:50;3.03;;;0.80;;
20711;SDS011;10517;50.742;4.224;2024-01-06T01:52:19;2.30;;;0.80;;
20711;SDS011;10517;50.742;4.224;2024-01-06T01:54:45;7.47;;;1.47;;
20711;SDS011;10517;50.742;4.224;2024-01-06T01:57:11;2.17;;;0.77;;
20711;SDS011;10517;50.742;4.224;2024-01-06T01:59:38;1.30;;;0.43;;
20711;SDS011;10517;50.742;4.224;2024-01-06T02:02:04;6.50;;;0.87;;
20711;SDS011;10517;50.742;4.224;2024-01-06T02:04:31;0.97;;;0.73;;
20711;SDS011;10517;50.742;4.224;2024-01-06T02:06:57;1.93;;;0.50;;
20711;SDS011;10517;50.742;4.224;2024-01-06T02:09:22;1.07;;;0.63;;
20711;SDS011;10517;50.742;4.224;2024-01-06T02:11:52;2.97;;;1.80;;
20711;SDS011;10517;50.742;4.224;2024-01-06T02:14:17;2.00;;;0.73;;
20711;SDS011;10517;50.742;4.224;2024-01-06T02:16:43;2.27;;;1.43;;
20711;SDS011;10517;50.742;4.224;2024-01-06T02:19:09;2.67;;;0.63;;
20711;SDS011;10517;50.742;4.224;2024-01-06T02:21:39;0.80;;;0.60;;
20711;SDS011;10517;50.742;4.224;2024-01-06T02:24:08;0.60;;;0.43;;
20711;SDS011;10517;50.742;4.224;2024-01-06T02:26:33;2.00;;;0.80;;
20711;SDS011;10517;50.742;4.224;2024-01-06T02:28:59;4.03;;;0.80;;
20711;SDS011;10517;50.742;4.224;2024-01-06T02:31:26;0.63;;;0.60;;
20711;SDS011;10517;50.742;4.224;2024-01-06T02:33:52;0.37;;;0.37;;
20711;SDS011;10517;50.742;4.224;2024-01-06T02:36:18;1.03;;;0.37;;
20711;SDS011;10517;50.742;4.224;2024-01-06T02:38:43;0.80;;;0.50;;
20711;SDS011;10517;50.742;4.224;2024-01-06T02:41:09;0.80;;;0.50;;
20711;SDS011;10517;50.742;4.224;2024-01-06T02:43:34;5.27;;;0.60;;
20711;SDS011;10517;50.742;4.224;2024-01-06T02:46:00;0.47;;;0.47;;
20711;SDS011;10517;50.742;4.224;2024-01-06T02:48:26;2.20;;;0.50;;
20711;SDS011;10517;50.742;4.224;2024-01-06T02:50:51;0.70;;;0.40;;
20711;SDS011;10517;50.742;4.224;2024-01-06T02:53:17;0.53;;;0.50;;
20711;SDS011;10517;50.742;4.224;2024-01-06T02:55:42;0.60;;;0.60;;
20711;SDS011;10517;50.742;4.224;2024-01-06T02:58:08;1.73;;;0.57;;
20711;SDS011;10517;50.742;4.224;2024-01-06T03:00:33;0.70;;;0.30;;
20711;SDS011;10517;50.742;4.224;2024-01-06T03:02:59;5.70;;;0.50;;
20711;SDS011;10517;50.742;4.224;2024-01-06T03:05:25;0.80;;;0.80;;
20711;SDS011;10517;50.742;4.224;2024-01-06T03:07:50;0.83;;;0.63;;
20711;SDS011;10517;50.742;4.224;2024-01-06T03:10:16;1.63;;;0.53;;
20711;SDS011;10517;50.742;4.224;2024-01-06T03:12:41;2.57;;;0.47;;
20711;SDS011;10517;50.742;4.224;2024-01-06T03:15:07;2.53;;;0.70;;
20711;SDS011;10517;50.742;4.224;2024-01-06T03:17:33;1.80;;;0.57;;
20711;SDS011;10517;50.742;4.224;2024-01-06T03:19:59;1.30;;;0.60;;
20711;SDS011;10517;50.742;4.224;2024-01-06T03:22:24;0.70;;;0.43;;
20711;SDS011;10517;50.742;4.224;2024-01-06T03:24:50;0.60;;;0.40;;
20711;SDS011;10517;50.742;4.224;2024-01-06T03:27:15;0.60;;;0.50;;
20711;SDS011;10517;50.742;4.224;2024-01-06T03:29:41;1.17;;;0.50;;
20711;SDS011;10517;50.742;4.224;2024-01-06T03:32:07;5.03;;;0.70;;
20711;SDS011;10517;50.742;4.224;2024-01-06T03:34:32;2.20;;;0.80;;
20711;SDS011;10517;50.742;4.224;2024-01-06T03:36:58;1.07;;;0.43;;
20711;SDS011;10517;50.742;4.224;2024-01-06T03:39:23;0.27;;;0.13;;
20711;SDS011;10517;50.742;4.224;2024-01-06T03:41:49;1.50;;;0.50;;
20711;SDS011;10517;50.742;4.224;2024-01-06T03:44:14;5.10;;;0.40;;
20711;SDS011;10517;50.742;4.224;2024-01-06T03:46:40;0.50;;;0.30;;
20711;SDS011;10517;50.742;4.224;2024-01-06T03:49:05;0.30;;;0.30;;
20711;SDS011;10517;50.742;4.224;2024-01-06T03:51:31;2.90;;;0.37;;
20711;SDS011;10517;50.742;4.224;2024-01-06T03:53:57;0.37;;;0.23;;
20711;SDS011;10517;50.742;4.224;2024-01-06T03:56:22;1.80;;;0.67;;
20711;SDS011;10517;50.742;4.224;2024-01-06T03:58:48;0.87;;;0.77;;
20711;SDS011;10517;50.742;4.224;2024-01-06T04:01:13;0.50;;;0.20;;
20711;SDS011;10517;50.742;4.224;2024-01-06T04:03:39;1.50;;;0.50;;
20711;SDS011;10517;50.742;4.224;2024-01-06T04:06:07;0.40;;;0.37;;
20711;SDS011;10517;50.742;4.224;2024-01-06T04:08:34;0.37;;;0.37;;
20711;SDS011;10517;50.742;4.224;2024-01-06T04:11:04;0.50;;;0.30;;
20711;SDS011;10517;50.742;4.224;2024-01-06T04:13:30;0.93;;;0.50;;
20711;SDS011;10517;50.742;4.224;2024-01-06T04:15:55;0.40;;;0.30;;
20711;SDS011;10517;50.742;4.224;2024-01-06T04:18:21;1.87;;;0.40;;
20711;SDS011;10517;50.742;4.224;2024-01-06T04:20:46;0.70;;;0.30;;
20711;SDS011;10517;50.742;4.224;2024-01-06T04:23:12;0.33;;;0.17;;
20711;SDS011;10517;50.742;4.224;2024-01-06T04:25:37;0.43;;;0.40;;
20711;SDS011;10517;50.742;4.224;2024-01-06T04:28:03;3.20;;;0.73;;
20711;SDS011;10517;50.742;4.224;2024-01-06T04:30:29;0.87;;;0.63;;
20711;SDS011;10517;50.742;4.224;2024-01-06T04:32:54;0.73;;;0.50;;
20711;SDS011;10517;50.742;4.224;2024-01-06T04:35:22;1.07;;;0.50;;
20711;SDS011;10517;50.742;4.224;2024-01-06T04:37:48;0.40;;;0.37;;
20711;SDS011;10517;50.742;4.224;2024-01-06T04:40:13;0.60;;;0.60;;
20711;SDS011;10517;50.742;4.224;2024-01-06T04:42:39;0.47;;;0.47;;
20711;SDS011;10517;50.742;4.224;2024-01-06T04:45:05;0.30;;;0.30;;
20711;SDS011;10517;50.742;4.224;2024-01-06T04:47:31;0.80;;;0.20;;
20711;SDS011;10517;50.742;4.224;2024-01-06T04:49:56;1.00;;;0.70;;
20711;SDS011;10517;50.742;4.224;2024-01-06T04:52:22;0.50;;;0.43;;
20711;SDS011;10517;50.742;4.224;2024-01-06T04:54:48;1.03;;;0.70;;
20711;SDS011;10517;50.742;4.224;2024-01-06T04:57:13;1.67;;;0.63;;
20711;SDS011;10517;50.742;4.224;2024-01-06T04:59:39;0.70;;;0.53;;
20711;SDS011;10517;50.742;4.224;2024-01-06T05:02:05;2.67;;;1.00;;
20711;SDS011;10517;50.742;4.224;2024-01-06T05:04:31;2.00;;;1.40;;
20711;SDS011;10517;50.742;4.224;2024-01-06T05:06:57;2.37;;;0.93;;
20711;SDS011;10517;50.742;4.224;2024-01-06T05:09:23;1.37;;;0.90;;
20711;SDS011;10517;50.742;4.224;2024-01-06T05:11:50;4.47;;;1.67;;
20711;SDS011;10517;50.742;4.224;2024-01-06T05:14:15;5.30;;;2.37;;
20711;SDS011;10517;50.742;4.224;2024-01-06T05:16:41;9.40;;;1.60;;
20711;SDS011;10517;50.742;4.224;2024-01-06T05:19:07;1.30;;;0.97;;
20711;SDS011;10517;50.742;4.224;2024-01-06T05:21:32;2.93;;;1.83;;
20711;SDS011;10517;50.742;4.224;2024-01-06T05:23:59;3.03;;;1.10;;
20711;SDS011;10517;50.742;4.224;2024-01-06T05:26:25;2.43;;;1.37;;
20711;SDS011;10517;50.742;4.224;2024-01-06T05:28:51;3.47;;;1.90;;
20711;SDS011;10517;50.742;4.224;2024-01-06T05:31:17;2.00;;;1.33;;
20711;SDS011;10517;50.742;4.224;2024-01-06T05:33:43;2.67;;;1.43;;
20711;SDS011;10517;50.742;4.224;2024-01-06T05:36:08;5.87;;;1.43;;
20711;SDS011;10517;50.742;4.224;2024-01-06T05:38:35;2.03;;;1.33;;
20711;SDS011;10517;50.742;4.224;2024-01-06T05:41:02;2.17;;;1.07;;
20711;SDS011;10517;50.742;4.224;2024-01-06T05:43:27;1.67;;;1.10;;
20711;SDS011;10517;50.742;4.224;2024-01-06T05:45:53;3.20;;;1.40;;
20711;SDS011;10517;50.742;4.224;2024-01-06T05:48:19;1.63;;;1.20;;
20711;SDS011;10517;50.742;4.224;2024-01-06T05:50:44;3.10;;;1.33;;
20711;SDS011;10517;50.742;4.224;2024-01-06T05:53:10;2.20;;;1.20;;
20711;SDS011;10517;50.742;4.224;2024-01-06T05:55:36;2.17;;;0.90;;
20711;SDS011;10517;50.742;4.224;2024-01-06T05:58:02;1.63;;;0.63;;
20711;SDS011;10517;50.742;4.224;2024-01-06T06:00:27;0.57;;;0.50;;
20711;SDS011;10517;50.742;4.224;2024-01-06T06:02:56;3.87;;;1.30;;
20711;SDS011;10517;50.742;4.224;2024-01-06T06:05:22;2.00;;;0.77;;
20711;SDS011;10517;50.742;4.224;2024-01-06T06:07:47;2.63;;;0.97;;
20711;SDS011;10517;50.742;4.224;2024-01-06T06:10:13;3.17;;;1.07;;
20711;SDS011;10517;50.742;4.224;2024-01-06T06:12:41;1.23;;;0.70;;
20711;SDS011;10517;50.742;4.224;2024-01-06T06:15:06;1.80;;;1.20;;
20711;SDS011;10517;50.742;4.224;2024-01-06T06:17:32;1.27;;;0.67;;
20711;SDS011;10517;50.742;4.224;2024-01-06T06:19:58;1.30;;;0.90;;
20711;SDS011;10517;50.742;4.224;2024-01-06T06:22:24;2.43;;;1.43;;
20711;SDS011;10517;50.742;4.224;2024-01-06T06:24:57;1.50;;;0.63;;
20711;SDS011;10517;50.742;4.224;2024-01-06T06:27:26;3.50;;;1.43;;
20711;SDS011;10517;50.742;4.224;2024-01-06T06:29:52;3.17;;;1.27;;
20711;SDS011;10517;50.742;4.224;2024-01-06T06:32:18;3.97;;;1.17;;
20711;SDS011;10517;50.742;4.224;2024-01-06T06:34:43;3.10;;;1.70;;
20711;SDS011;10517;50.742;4.224;2024-01-06T06:37:09;1.77;;;1.50;;
20711;SDS011;10517;50.742;4.224;2024-01-06T06:39:35;1.70;;;1.60;;
20711;SDS011;10517;50.742;4.224;2024-01-06T06:42:01;1.33;;;1.17;;
20711;SDS011;10517;50.742;4.224;2024-01-06T06:44:27;1.63;;;1.53;;
20711;SDS011;10517;50.742;4.224;2024-01-06T06:46:54;2.23;;;1.33;;
20711;SDS011;10517;50.742;4.224;2024-01-06T06:49:19;5.13;;;2.30;;
20711;SDS011;10517;50.742;4.224;2024-01-06T06:51:45;3.70;;;1.40;;
20711;SDS011;10517;50.742;4.224;2024-01-06T06:54:13;1.90;;;1.27;;
20711;SDS011;10517;50.742;4.224;2024-01-06T06:56:40;2.73;;;1.90;;
20711;SDS011;10517;50.742;4.224;2024-01-06T06:59:07;1.97;;;1.37;;
20711;SDS011;10517;50.742;4.224;2024-01-06T07:01:32;3.70;;;1.23;;
20711;SDS011;10517;50.742;4.224;2024-01-06T07:03:59;2.20;;;1.60;;
20711;SDS011;10517;50.742;4.224;2024-01-06T07:06:24;3.13;;;1.53;;
20711;SDS011;10517;50.742;4.224;2024-01-06T07:08:50;4.10;;;1.20;;
20711;SDS011;10517;50.742;4.224;2024-01-06T07:11:15;6.53;;;1.10;;
20711;SDS011;10517;50.742;4.224;2024-01-06T07:13:43;1.97;;;1.20;;
20711;SDS011;10517;50.742;4.224;2024-01-06T07:16:09;1.80;;;1.03;;
20711;SDS011;10517;50.742;4.224;2024-01-06T07:18:36;2.00;;;1.50;;
20711;SDS011;10517;50.742;4.224;2024-01-06T07:21:04;7.53;;;2.37;;
20711;SDS011;10517;50.742;4.224;2024-01-06T07:23:31;1.63;;;1.33;;
20711;SDS011;10517;50.742;4.224;2024-01-06T07:25:57;1.93;;;1.03;;
20711;SDS011;10517;50.742;4.224;2024-01-06T07:28:23;2.00;;;0.97;;
20711;SDS011;10517;50.742;4.224;2024-01-06T07:30:48;4.85;;;2.05;;
20711;SDS011;10517;50.742;4.224;2024-01-06T07:33:14;3.57;;;1.73;;
20711;SDS011;10517;50.742;4.224;2024-01-06T07:35:39;4.40;;;2.03;;
20711;SDS011;10517;50.742;4.224;2024-01-06T07:38:08;3.90;;;1.20;;
20711;SDS011;10517;50.742;4.224;2024-01-06T07:40:37;3.20;;;2.17;;
20711;SDS011;10517;50.742;4.224;2024-01-06T07:43:02;3.00;;;2.27;;
20711;SDS011;10517;50.742;4.224;2024-01-06T07:45:29;5.60;;;2.70;;
20711;SDS011;10517;50.742;4.224;2024-01-06T07:47:55;3.97;;;2.27;;
20711;SDS011;10517;50.742;4.224;2024-01-06T07:50:20;3.23;;;1.77;;
20711;SDS011;10517;50.742;4.224;2024-01-06T07:52:46;3.43;;;2.10;;
20711;SDS011;10517;50.742;4.224;2024-01-06T07:55:11;2.87;;;1.60;;
20711;SDS011;10517;50.742;4.224;2024-01-06T07:57:37;5.07;;;1.93;;
20711;SDS011;10517;50.742;4.224;2024-01-06T08:00:03;4.63;;;2.20;;
20711;SDS011;10517;50.742;4.224;2024-01-06T08:02:29;5.87;;;2.63;;
20711;SDS011;10517;50.742;4.224;2024-01-06T08:04:55;3.20;;;1.97;;
20711;SDS011;10517;50.742;4.224;2024-01-06T08:07:21;4.53;;;2.13;;
20711;SDS011;10517;50.742;4.224;2024-01-06T08:09:47;8.13;;;4.37;;
20711;SDS011;10517;50.742;4.224;2024-01-06T08:12:13;11.53;;;2.23;;
20711;SDS011;10517;50.742;4.224;2024-01-06T08:14:39;3.47;;;2.23;;
20711;SDS011;10517;50.742;4.224;2024-01-06T08:17:05;6.67;;;2.33;;
20711;SDS011;10517;50.742;4.224;2024-01-06T08:19:30;4.83;;;2.13;;
20711;SDS011;10517;50.742;4.224;2024-01-06T08:21:58;7.20;;;3.37;;
20711;SDS011;10517;50.742;4.224;2024-01-06T08:24:23;5.53;;;2.93;;
20711;SDS011;10517;50.742;4.224;2024-01-06T08:26:49;5.53;;;3.60;;
20711;SDS011;10517;50.742;4.224;2024-01-06T08:29:15;4.60;;;3.17;;
20711;SDS011;10517;50.742;4.224;2024-01-06T08:31:41;4.97;;;3.10;;
20711;SDS011;10517;50.742;4.224;2024-01-06T08:34:07;5.57;;;3.37;;
20711;SDS011;10517;50.742;4.224;2024-01-06T08:36:33;3.37;;;2.20;;
20711;SDS011;10517;50.742;4.224;2024-01-06T08:38:59;6.93;;;2.87;;
20711;SDS011;10517;50.742;4.224;2024-01-06T08:41:24;6.27;;;2.80;;
20711;SDS011;10517;50.742;4.224;2024-01-06T08:43:50;7.57;;;2.93;;
20711;SDS011;10517;50.742;4.224;2024-01-06T08:46:16;4.07;;;2.53;;
20711;SDS011;10517;50.742;4.224;2024-01-06T08:48:42;4.87;;;2.60;;
20711;SDS011;10517;50.742;4.224;2024-01-06T08:51:07;3.87;;;2.30;;
20711;SDS011;10517;50.742;4.224;2024-01-06T08:53:33;8.77;;;2.13;;
20711;SDS011;10517;50.742;4.224;2024-01-06T08:55:58;11.67;;;2.90;;
20711;SDS011;10517;50.742;4.224;2024-01-06T08:58:24;7.17;;;3.17;;
20711;SDS011;10517;50.742;4.224;2024-01-06T09:00:50;3.87;;;1.87;;
20711;SDS011;10517;50.742;4.224;2024-01-06T09:03:18;4.30;;;2.57;;
20711;SDS011;10517;50.742;4.224;2024-01-06T09:05:49;3.90;;;2.43;;
20711;SDS011;10517;50.742;4.224;2024-01-06T09:08:16;7.20;;;3.22;;
20711;SDS011;10517;50.742;4.224;2024-01-06T09:10:42;6.73;;;3.00;;
20711;SDS011;10517;50.742;4.224;2024-01-06T09:13:08;6.37;;;2.13;;
20711;SDS011;10517;50.742;4.224;2024-01-06T09:15:33;4.40;;;2.70;;
20711;SDS011;10517;50.742;4.224;2024-01-06T09:17:59;4.50;;;2.77;;
20711;SDS011;10517;50.742;4.224;2024-01-06T09:20:25;6.97;;;2.97;;
20711;SDS011;10517;50.742;4.224;2024-01-06T09:22:52;5.57;;;2.17;;
20711;SDS011;10517;50.742;4.224;2024-01-06T09:25:17;4.17;;;2.60;;
20711;SDS011;10517;50.742;4.224;2024-01-06T09:27:43;5.10;;;2.10;;
20711;SDS011;10517;50.742;4.224;2024-01-06T09:30:09;2.43;;;1.53;;
20711;SDS011;10517;50.742;4.224;2024-01-06T09:32:35;4.83;;;2.23;;
20711;SDS011;10517;50.742;4.224;2024-01-06T09:35:00;2.97;;;2.00;;
20711;SDS011;10517;50.742;4.224;2024-01-06T09:37:26;4.30;;;2.17;;
20711;SDS011;10517;50.742;4.224;2024-01-06T09:39:51;5.03;;;2.57;;
20711;SDS011;10517;50.742;4.224;2024-01-06T09:42:17;5.40;;;1.97;;
20711;SDS011;10517;50.742;4.224;2024-01-06T09:44:42;3.77;;;1.60;;
20711;SDS011;10517;50.742;4.224;2024-01-06T09:47:09;3.43;;;1.73;;
20711;SDS011;10517;50.742;4.224;2024-01-06T09:49:38;3.77;;;2.10;;
20711;SDS011;10517;50.742;4.224;2024-01-06T09:52:08;4.63;;;2.77;;
20711;SDS011;10517;50.742;4.224;2024-01-06T09:54:40;2.90;;;1.80;;
20711;SDS011;10517;50.742;4.224;2024-01-06T09:57:11;5.40;;;2.27;;
20711;SDS011;10517;50.742;4.224;2024-01-06T09:59:37;7.43;;;2.93;;
20711;SDS011;10517;50.742;4.224;2024-01-06T10:02:04;4.53;;;1.67;;
20711;SDS011;10517;50.742;4.224;2024-01-06T10:04:30;2.83;;;1.73;;
20711;SDS011;10517;50.742;4.224;2024-01-06T10:06:56;5.60;;;1.70;;
20711;SDS011;10517;50.742;4.224;2024-01-06T10:09:30;3.67;;;1.90;;
20711;SDS011;10517;50.742;4.224;2024-01-06T10:11:56;4.07;;;1.73;;
20711;SDS011;10517;50.742;4.224;2024-01-06T10:14:23;3.37;;;2.10;;
20711;SDS011;10517;50.742;4.224;2024-01-06T10:16:49;4.50;;;2.57;;
20711;SDS011;10517;50.742;4.224;2024-01-06T10:19:15;7.43;;;2.10;;
20711;SDS011;10517;50.742;4.224;2024-01-06T10:21:41;4.13;;;1.73;;
20711;SDS011;10517;50.742;4.224;2024-01-06T10:24:07;3.87;;;1.70;;
20711;SDS011;10517;50.742;4.224;2024-01-06T10:26:34;3.47;;;1.83;;
20711;SDS011;10517;50.742;4.224;2024-01-06T10:29:00;3.10;;;1.90;;
20711;SDS011;10517;50.742;4.224;2024-01-06T10:31:26;2.27;;;1.10;;
20711;SDS011;10517;50.742;4.224;2024-01-06T10:33:51;4.60;;;2.03;;
20711;SDS011;10517;50.742;4.224;2024-01-06T10:36:17;3.97;;;1.77;;
20711;SDS011;10517;50.742;4.224;2024-01-06T10:38:46;4.93;;;1.67;;
20711;SDS011;10517;50.742;4.224;2024-01-06T10:41:11;4.07;;;2.30;;
20711;SDS011;10517;50.742;4.224;2024-01-06T10:43:38;4.30;;;2.13;;
20711;SDS011;10517;50.742;4.224;2024-01-06T10:46:06;2.93;;;1.70;;
20711;SDS011;10517;50.742;4.224;2024-01-06T10:48:36;3.20;;;1.57;;
20711;SDS011;10517;50.742;4.224;2024-01-06T10:51:09;2.40;;;1.50;;
20711;SDS011;10517;50.742;4.224;2024-01-06T10:53:36;2.10;;;1.57;;
20711;SDS011;10517;50.742;4.224;2024-01-06T10:56:04;4.43;;;2.20;;
20711;SDS011;10517;50.742;4.224;2024-01-06T10:58:32;3.57;;;2.17;;
20711;SDS011;10517;50.742;4.224;2024-01-06T11:01:02;2.73;;;1.73;;
20711;SDS011;10517;50.742;4.224;2024-01-06T11:03:28;2.67;;;2.10;;
20711;SDS011;10517;50.742;4.224;2024-01-06T11:05:54;3.97;;;1.77;;
20711;SDS011;10517;50.742;4.224;2024-01-06T11:08:22;3.83;;;2.27;;
20711;SDS011;10517;50.742;4.224;2024-01-06T11:10:48;2.57;;;1.60;;
20711;SDS011;10517;50.742;4.224;2024-01-06T11:13:15;3.63;;;1.57;;
20711;SDS011;10517;50.742;4.224;2024-01-06T11:15:47;7.13;;;2.13;;
20711;SDS011;10517;50.742;4.224;2024-01-06T11:21:18;9.07;;;2.97;;
20711;SDS011;10517;50.742;4.224;2024-01-06T11:26:34;3.17;;;1.43;;
20711;SDS011;10517;50.742;4.224;2024-01-06T11:29:05;3.67;;;1.47;;
20711;SDS011;10517;50.742;4.224;2024-01-06T11:31:32;5.13;;;1.87;;
20711;SDS011;10517;50.742;4.224;2024-01-06T11:34:11;6.00;;;2.63;;
20711;SDS011;10517;50.742;4.224;2024-01-06T11:36:38;5.60;;;2.13;;
20711;SDS011;10517;50.742;4.224;2024-01-06T11:39:05;1.27;;;1.07;;
20711;SDS011;10517;50.742;4.224;2024-01-06T11:41:49;6.07;;;2.30;;
20711;SDS011;10517;50.742;4.224;2024-01-06T11:44:22;4.80;;;1.33;;
20711;SDS011;10517;50.742;4.224;2024-01-06T11:46:48;3.70;;;1.27;;
20711;SDS011;10517;50.742;4.224;2024-01-06T11:49:17;3.30;;;2.43;;
20711;SDS011;10517;50.742;4.224;2024-01-06T11:51:45;2.23;;;1.33;;
20711;SDS011;10517;50.742;4.224;2024-01-06T11:54:11;3.37;;;2.27;;
20711;SDS011;10517;50.742;4.224;2024-01-06T11:56:37;4.73;;;2.17;;
20711;SDS011;10517;50.742;4.224;2024-01-06T11:59:03;4.57;;;1.60;;
20711;SDS011;10517;50.742;4.224;2024-01-06T12:01:36;5.83;;;2.87;;
20711;SDS011;10517;50.742;4.224;2024-01-06T12:04:02;2.23;;;1.20;;
20711;SDS011;10517;50.742;4.224;2024-01-06T12:06:32;9.17;;;2.53;;
20711;SDS011;10517;50.742;4.224;2024-01-06T12:09:05;6.90;;;3.07;;
20711;SDS011;10517;50.742;4.224;2024-01-06T12:11:31;4.37;;;1.63;;
20711;SDS011;10517;50.742;4.224;2024-01-06T12:13:56;4.33;;;2.07;;
20711;SDS011;10517;50.742;4.224;2024-01-06T12:16:22;2.73;;;1.67;;
20711;SDS011;10517;50.742;4.224;2024-01-06T12:18:52;3.50;;;1.50;;
20711;SDS011;10517;50.742;4.224;2024-01-06T12:21:20;7.80;;;3.27;;
20711;SDS011;10517;50.742;4.224;2024-01-06T12:23:47;4.00;;;2.47;;
20711;SDS011;10517;50.742;4.224;2024-01-06T12:26:12;4.63;;;2.33;;
20711;SDS011;10517;50.742;4.224;2024-01-06T12:28:38;7.50;;;1.70;;
20711;SDS011;10517;50.742;4.224;2024-01-06T12:31:04;4.83;;;1.47;;
20711;SDS011;10517;50.742;4.224;2024-01-06T12:33:33;2.70;;;2.13;;
20711;SDS011;10517;50.742;4.224;2024-01-06T12:36:02;2.10;;;1.47;;
20711;SDS011;10517;50.742;4.224;2024-01-06T12:38:29;4.00;;;1.73;;
20711;SDS011;10517;50.742;4.224;2024-01-06T12:40:55;3.43;;;1.63;;
20711;SDS011;10517;50.742;4.224;2024-01-06T12:43:21;4.80;;;1.30;;
20711;SDS011;10517;50.742;4.224;2024-01-06T12:45:46;2.87;;;1.40;;
20711;SDS011;10517;50.742;4.224;2024-01-06T12:48:12;1.50;;;0.77;;
20711;SDS011;10517;50.742;4.224;2024-01-06T12:50:38;1.80;;;1.37;;
20711;SDS011;10517;50.742;4.224;2024-01-06T12:53:03;2.87;;;1.43;;
20711;SDS011;10517;50.742;4.224;2024-01-06T12:55:29;3.93;;;1.53;;
20711;SDS011;10517;50.742;4.224;2024-01-06T12:57:55;2.83;;;2.03;;
20711;SDS011;10517;50.742;4.224;2024-01-06T13:00:20;2.73;;;1.67;;
20711;SDS011;10517;50.742;4.224;2024-01-06T13:02:46;2.57;;;0.90;;
20711;SDS011;10517;50.742;4.224;2024-01-06T13:05:12;3.93;;;1.67;;
20711;SDS011;10517;50.742;4.224;2024-01-06T13:07:38;3.17;;;2.07;;
20711;SDS011;10517;50.742;4.224;2024-01-06T13:10:04;4.53;;;1.87;;
20711;SDS011;10517;50.742;4.224;2024-01-06T13:12:30;3.63;;;1.67;;
20711;SDS011;10517;50.742;4.224;2024-01-06T13:14:56;7.13;;;1.47;;
20711;SDS011;10517;50.742;4.224;2024-01-06T13:17:22;2.10;;;1.77;;
20711;SDS011;10517;50.742;4.224;2024-01-06T13:19:47;2.80;;;1.60;;
20711;SDS011;10517;50.742;4.224;2024-01-06T13:22:13;4.10;;;1.60;;
20711;SDS011;10517;50.742;4.224;2024-01-06T13:24:39;3.03;;;1.63;;
20711;SDS011;10517;50.742;4.224;2024-01-06T13:27:05;3.13;;;1.23;;
20711;SDS011;10517;50.742;4.224;2024-01-06T13:29:31;4.43;;;2.07;;
20711;SDS011;10517;50.742;4.224;2024-01-06T13:31:57;7.43;;;2.17;;
20711;SDS011;10517;50.742;4.224;2024-01-06T13:34:24;2.23;;;1.47;;
20711;SDS011;10517;50.742;4.224;2024-01-06T13:36:50;3.60;;;2.37;;
20711;SDS011;10517;50.742;4.224;2024-01-06T13:39:15;3.00;;;1.50;;
20711;SDS011;10517;50.742;4.224;2024-01-06T13:41:47;2.73;;;1.33;;
20711;SDS011;10517;50.742;4.224;2024-01-06T13:44:13;2.30;;;1.03;;
20711;SDS011;10517;50.742;4.224;2024-01-06T13:46:39;4.10;;;1.57;;
20711;SDS011;10517;50.742;4.224;2024-01-06T13:49:10;2.67;;;1.53;;
20711;SDS011;10517;50.742;4.224;2024-01-06T13:51:36;1.13;;;0.80;;
20711;SDS011;10517;50.742;4.224;2024-01-06T13:54:03;1.20;;;1.10;;
20711;SDS011;10517;50.742;4.224;2024-01-06T13:56:29;1.33;;;0.70;;
20711;SDS011;10517;50.742;4.224;2024-01-06T13:58:54;1.40;;;0.80;;
20711;SDS011;10517;50.742;4.224;2024-01-06T14:01:20;0.30;;;0.20;;
20711;SDS011;10517;50.742;4.224;2024-01-06T14:03:45;0.53;;;0.40;;
20711;SDS011;10517;50.742;4.224;2024-01-06T14:06:11;1.37;;;0.77;;
20711;SDS011;10517;50.742;4.224;2024-01-06T14:08:36;1.20;;;1.03;;
20711;SDS011;10517;50.742;4.224;2024-01-06T14:11:02;1.47;;;0.93;;
20711;SDS011;10517;50.742;4.224;2024-01-06T14:13:28;1.10;;;0.50;;
20711;SDS011;10517;50.742;4.224;2024-01-06T14:15:53;0.83;;;0.67;;
20711;SDS011;10517;50.742;4.224;2024-01-06T14:18:19;0.90;;;0.57;;
20711;SDS011;10517;50.742;4.224;2024-01-06T14:20:45;1.27;;;0.83;;
20711;SDS011;10517;50.742;4.224;2024-01-06T14:23:11;1.00;;;0.77;;
20711;SDS011;10517;50.742;4.224;2024-01-06T14:25:36;1.77;;;0.57;;
20711;SDS011;10517;50.742;4.224;2024-01-06T14:28:02;0.77;;;0.50;;
20711;SDS011;10517;50.742;4.224;2024-01-06T14:30:27;1.40;;;0.90;;
20711;SDS011;10517;50.742;4.224;2024-01-06T14:32:54;1.90;;;1.40;;
20711;SDS011;10517;50.742;4.224;2024-01-06T14:35:19;0.73;;;0.50;;
20711;SDS011;10517;50.742;4.224;2024-01-06T14:37:45;0.90;;;0.60;;
20711;SDS011;10517;50.742;4.224;2024-01-06T14:40:11;1.83;;;0.90;;
20711;SDS011;10517;50.742;4.224;2024-01-06T14:42:37;0.50;;;0.40;;
20711;SDS011;10517;50.742;4.224;2024-01-06T14:45:03;0.27;;;0.27;;
20711;SDS011;10517;50.742;4.224;2024-01-06T14:47:29;0.63;;;0.50;;